Terminal Aerodrome Forecast
Issued by NWS

Home | Current Version | Previous Version | Text Only | Print | Product List | Glossary On
Versions: 1 2 3 4 5 6 7 8 9 10 11 12 13 14 15 16 17 18 19 20 21 22 23 24
615
FTUS45 KLKN 182320
TAFWMC
TAF
KWMC 182320Z 1900/1924 16013G22KT P6SM VCSH BKN070 OVC100
     FM190600 25012KT 6SM -SHRASN OVC035
     FM191600 28008KT P6SM -SN OVC050
     FM192000 29008KT 6SM -SN BKN040 OVC060=

USA.gov is the U.S. government's official web portal to all federal, state and local government web resources and services.